Nearby METAR Reports

 

EGEO - Oban, United Kingdom
Distance from station: SSW 18mi, 30km
Updated: 25/01/2020 13:50
NOT Current
Nearby showers, Mostly cloudy
Nearby showers, Mostly cloudy
 Wind from S
Wind: S 14 mph , 22 km/h
Temperature: 8°C
Wind Chill: 4°C
Dew Point: 5°C
Humidity: 82%
Barometer: 1008 hPa
Summary: Nearby Showers
Clouds: Mostly cloudy
Visibility: 6 miles , 10 km
Cloud details: Few Clouds 366 m
Partly cloudy 610 m
Mostly cloudy 1158 m
2020/01/25 13:50 EGEO 251350Z 17012KT 9999 VCSH FEW012 SCT020 BKN038 08/05 Q1008
EGPU - Tiree, United Kingdom
Distance from station: WSW 64mi, 103km
Updated: 25/01/2020 17:50
Light rain, Partly cloudy
Light rain, Partly cloudy
 Wind from S
Wind: S 29 mph , 46 km/h
Temperature: 8°C
Wind Chill: 3°C
Dew Point: 6°C
Humidity: 87%
Barometer: 1002 hPa
Summary: Light rain
Clouds: Partly cloudy
Visibility: 6 miles , 10 km
Cloud details: Mostly cloudy 549 m
Partly cloudy 1067 m
2020/01/25 17:50 EGPU 251750Z 19025KT 9999 -RA BKN018 SCT035 08/06 Q1002
EGPF - Glasgow, United Kingdom
Distance from station: SSE 66mi, 107km
Updated: 25/01/2020 17:50
Overcast
Overcast
 Wind from varies
Wind: varies 5 mph , 7 km/h
Temperature: 7°C
Wind Chill: 6°C
Dew Point: 4°C
Humidity: 81%
Barometer: 1007 hPa
Clouds: Overcast
Visibility: 6 miles , 10 km
Cloud details: Mostly cloudy 1036 m
Overcast 1280 m
2020/01/25 17:50 EGPF 251750Z AUTO VRB04KT 9999 BKN034 OVC042 07/04 Q1007
 
EGPE - Inverness, United Kingdom
Distance from station: NE 71mi, 114km
Updated: 25/01/2020 17:50
Partly cloudy
Partly cloudy
 Wind from SSW
Wind: SSW 20 mph , 31 km/h
Temperature: 8°C
Wind Chill: 3°C
Dew Point: 3°C
Humidity: 71%
Barometer: 1003 hPa
Clouds: Partly cloudy
Visibility: 6 miles , 10 km
Cloud details: Partly cloudy 853 m
2020/01/25 17:50 EGPE 251750Z 21017KT 9999 SCT028 08/03 Q1003
EGPI - Islay/Port Ellen, United Kingdom
Distance from station: SSW 81mi, 131km
Updated: 25/01/2020 17:20
Mostly cloudy
Mostly cloudy
 Wind from S
Wind: S 18 mph , 30 km/h
Temperature: 8°C
Wind Chill: 4°C
Dew Point: 5°C
Humidity: 82%
Barometer: 1005 hPa
Clouds: Mostly cloudy
Visibility: 6 miles , 10 km
Cloud details: Mostly cloudy 1341 m
2020/01/25 17:20 EGPI 251720Z AUTO 17016KT 130V200 9999 BKN044/// 08/05 Q1005
EGPN - Dundee/Riverside, United Kingdom
Distance from station: E 86mi, 138km
Updated: 25/01/2020 16:20
NOT Current
Mostly cloudy
Mostly cloudy
 Wind from WSW
Wind: WSW 14 mph , 22 km/h
Temperature: 7°C
Wind Chill: 4°C
Dew Point: 5°C
Humidity: 87%
Barometer: 1008 hPa
Clouds: Mostly cloudy
Visibility: 6 miles , 10 km
Cloud details: Mostly cloudy 610 m
2020/01/25 16:20 EGPN 251620Z 24012KT 9999 BKN020 07/05 Q1008
 
EGPK - Prestwick, United Kingdom
Distance from station: SSE 88mi, 141km
Updated: 25/01/2020 17:50
Mostly cloudy
Mostly cloudy
 
Temperature: 8°C
Dew Point: 4°C
Humidity: 76%
Barometer: 1008 hPa
Clouds: Mostly cloudy
Visibility: 6 miles , 10 km
Cloud details: Few Clouds 427 m
Partly cloudy 762 m
Mostly cloudy 1158 m
2020/01/25 17:50 EGPK 251750Z 9999 FEW014 SCT025 BKN038 08/04 Q1008
EGPH - Edinburgh, United Kingdom
Distance from station: SE 89mi, 143km
Updated: 25/01/2020 17:50
Mostly cloudy
Mostly cloudy
 Wind from SW
Wind: SW 12 mph , 19 km/h
Temperature: 7°C
Wind Chill: 4°C
Dew Point: 5°C
Humidity: 87%
Barometer: 1008 hPa
Clouds: Mostly cloudy
Visibility: 6 miles , 10 km
Cloud details: Partly cloudy 762 m
Mostly cloudy 1128 m
2020/01/25 17:50 EGPH 251750Z 23010KT 9999 SCT025 BKN037 07/05 Q1008
EGQK - RAF Kinloss, United Kingdom
Distance from station: NE 90mi, 144km
Updated: 25/01/2020 16:50
Overcast
Overcast
 Wind from SSW
Wind: SSW 12 mph , 19 km/h
Temperature: 8°C
Wind Chill: 4°C
Dew Point: 3°C
Humidity: 71%
Barometer: 1003 hPa
Clouds: Overcast
Visibility: 6 miles , 10 km
Cloud details: Overcast 6096 m
2020/01/25 16:50 EGQK 251650Z AUTO 21010KT 9999 OVC200/// 08/03 Q1003
 
EGEC - Campbeltown, United Kingdom
Distance from station: S 90mi, 145km
Updated: 24/01/2020 17:20
NOT Current
Mostly cloudy
Mostly cloudy
 Wind from SW
Wind: SW 9 mph , 15 km/h
Temperature: 9°C
Wind Chill: 7°C
Dew Point: 8°C
Humidity: 94%
Barometer: 1017 hPa
Clouds: Mostly cloudy
Visibility: 6 miles , 10 km
Cloud details: Mostly cloudy 366 m
2020/01/24 17:20 EGEC 241720Z 23008KT 210V270 9999 BKN012 09/08 Q1017
EGQA - Tain Range, United Kingdom
Distance from station: NNE 91mi, 146km
Updated: 24/01/2020 10:50
NOT Current
Partly cloudy
Partly cloudy
 Wind from S
Wind: S 10 mph , 17 km/h
Clouds: Partly cloudy
Visibility: 6 miles , 10 km
Cloud details: Few Clouds 457 m
Partly cloudy 1067 m
2020/01/24 10:50 EGQA 241050Z 17009KT 9999 FEW015 SCT035 08/// Q1017 RMK BLU
EGQL - RAF Leuchars, United Kingdom
Distance from station: ESE 93mi, 149km
Updated: 25/01/2020 17:50
Overcast
Overcast
 Wind from WSW
Wind: WSW 20 mph , 31 km/h
Temperature: 7°C
Wind Chill: 3°C
Dew Point: 4°C
Humidity: 81%
Barometer: 1007 hPa
Clouds: Overcast
Visibility: 6 miles , 10 km
Cloud details: Overcast 762 m
2020/01/25 17:50 EGQL 251750Z 25017KT 9999 OVC025 07/04 Q1007 BLU
 
EGPL - Benbecula, United Kingdom
Distance from station: WNW 96mi, 154km
Updated: 25/01/2020 17:50
Overcast
Overcast
 Wind from S
Wind: S 33 mph , 54 km/h, Gust: 45 mph , 72 km/h
Temperature: 9°C
Wind Chill: 4°C
Dew Point: 8°C
Humidity: 94%
Barometer: 999 hPa
Clouds: Overcast
Visibility: 6 miles , 10 km
Cloud details: Overcast 183 m
2020/01/25 17:50 EGPL 251750Z AUTO 19029G39KT 9999 OVC006/// 09/08 Q0999
EGQS - RAF Lossiemouth, United Kingdom
Distance from station: NE 99mi, 160km
Updated: 25/01/2020 17:50
Mostly cloudy
Mostly cloudy
 Wind from SSW
Wind: SSW 18 mph , 30 km/h
Temperature: 8°C
Wind Chill: 4°C
Dew Point: 3°C
Humidity: 71%
Barometer: 1003 hPa
Clouds: Mostly cloudy
Visibility: 6 miles , 10 km
Cloud details: Few Clouds 1067 m
Mostly cloudy 5791 m
2020/01/25 17:50 EGQS 251750Z 21016KT 9999 FEW035 BKN190 08/03 Q1003 RMK BLU
EGPO - Stornoway, United Kingdom
Distance from station: NNW 111mi, 179km
Updated: 25/01/2020 17:50
Overcast
Overcast
 Wind from S
Wind: S 29 mph , 46 km/h, Gust: 40 mph , 65 km/h
Temperature: 8°C
Wind Chill: 3°C
Dew Point: 7°C
Humidity: 93%
Barometer: 999 hPa
Clouds: Overcast
Visibility: 6 miles , 10 km
Cloud details: Mostly cloudy 152 m
Overcast 335 m
2020/01/25 17:50 EGPO 251750Z AUTO 19025G35KT 9999 BKN005/// OVC011/// 08/07 Q0999
 
EGPD - Aberdeen/Dyce, United Kingdom
Distance from station: ENE 118mi, 190km
Updated: 25/01/2020 17:50
Clear
Clear
 Wind from S
Wind: S 9 mph , 15 km/h
Temperature: 6°C
Wind Chill: 3°C
Dew Point: 3°C
Humidity: 81%
Barometer: 1005 hPa
Clouds: Clear
Visibility: 6 miles , 10 km
2020/01/25 17:50 EGPD 251750Z AUTO 18008KT 9999 NCD 06/03 Q1005 NOSIG
EGAE - Eglinton/Londond, United Kingdom
Distance from station: SSW 138mi, 222km
Updated: 25/01/2020 18:01
unable to load EGAE data RC=
unable to load EGAE data RC=
 
EGPC - Wick, United Kingdom
Distance from station: NNE 144mi, 232km
Updated: 25/01/2020 17:50
Clear
Clear
 Wind from SW
Wind: SW 12 mph , 19 km/h
Temperature: 7°C
Wind Chill: 4°C
Dew Point: 4°C
Humidity: 81%
Barometer: 1002 hPa
Clouds: Clear
Visibility: 6 miles , 10 km
2020/01/25 17:50 EGPC 251750Z AUTO 22010KT 9999 NCD 07/04 Q1002

Metar display script from Saratoga-Weather.org